< Typhoon 197602 1976 Season Typhoon 197604 >
Typhoon 197603 (MARIE)
General InformationTrack Information on Google Maps || Disaster Info.ResourceGoogle EarthGE AnimationAtom FeedGeoJSON
Detalied Best Track (Time Zone = UTC)
Year Month Day Hour Lat. Long. Pressure (hPa) Wind (kt) Class Image Chart
1976 4 2 12 8.5 138.4 1002 0 2 -- Chart
1976 4 2 18 8.5 139.1 998 0 2 -- Chart
1976 4 3 00 8.4 139.7 994 0 2 -- Chart
1976 4 3 06 8.2 140.3 990 0 2 -- Chart
1976 4 3 12 8.1 140.8 985 0 9 -- Chart
1976 4 3 18 8.1 141.0 985 0 9 -- Chart
1976 4 4 00 8.2 141.1 985 0 9 -- Chart
1976 4 4 06 8.3 140.7 985 0 9 -- Chart
1976 4 4 12 7.9 140.3 980 0 9 -- Chart
1976 4 4 18 7.5 139.8 975 0 9 -- Chart
1976 4 5 00 7.3 139.6 970 0 9 -- Chart
1976 4 5 06 7.2 139.4 975 0 9 -- Chart
1976 4 5 12 7.2 139.2 975 0 9 -- Chart
1976 4 5 18 7.3 138.9 980 0 9 -- Chart
1976 4 6 00 7.6 138.4 980 0 9 -- Chart
1976 4 6 06 7.7 137.7 975 0 9 -- Chart
1976 4 6 12 8.0 137.2 975 0 9 -- Chart
1976 4 6 18 8.0 136.4 970 0 9 -- Chart
1976 4 7 00 8.3 136.1 970 0 9 -- Chart
1976 4 7 06 8.3 135.7 975 0 9 -- Chart
1976 4 7 12 8.4 134.9 970 0 9 -- Chart
1976 4 7 18 8.4 134.2 965 0 9 -- Chart
1976 4 8 00 8.6 133.3 965 0 9 -- Chart
1976 4 8 06 8.7 132.5 960 0 9 -- Chart
1976 4 8 12 8.9 132.1 955 0 9 -- Chart
1976 4 8 18 9.3 131.7 955 0 9 -- Chart
1976 4 9 00 9.8 131.2 950 0 9 -- Chart
1976 4 9 06 10.4 130.9 950 0 9 -- Chart
1976 4 9 12 11.3 130.3 945 0 9 -- Chart
1976 4 9 18 11.7 129.9 940 0 9 -- Chart
1976 4 10 00 12.4 129.4 940 0 9 -- Chart
1976 4 10 06 13.0 129.1 935 0 9 -- Chart
1976 4 10 12 13.5 128.9 930 0 9 -- Chart
1976 4 10 18 14.4 128.7 930 0 9 -- Chart
1976 4 11 00 15.1 128.6 930 0 9 -- Chart
1976 4 11 06 15.9 128.9 930 0 9 -- Chart
1976 4 11 12 16.7 129.5 930 0 9 -- Chart
1976 4 11 18 17.8 130.0 935 0 9 -- Chart
1976 4 12 00 18.7 130.5 935 0 9 -- Chart
1976 4 12 06 19.9 131.2 940 0 9 -- Chart
1976 4 12 12 21.0 132.2 955 0 9 -- Chart
1976 4 12 18 22.0 133.1 960 0 9 -- Chart
1976 4 13 00 23.0 134.0 970 0 9 -- Chart
1976 4 13 06 24.1 134.8 970 0 9 -- Chart
1976 4 13 12 25.2 135.6 975 0 9 -- Chart
1976 4 13 18 26.5 136.8 980 0 9 -- Chart
1976 4 14 00 28.0 138.0 985 0 9 -- Chart
1976 4 14 06 30.2 140.2 985 0 9 -- Chart
1976 4 14 12 32.7 142.6 990 0 9 -- Chart
1976 4 14 18 35.0 145.4 990 0 9 -- Chart
1976 4 15 00 36.0 148.0 990 0 6 -- Chart
1976 4 15 06 38.0 152.0 992 0 6 -- Chart
1976 4 15 12 40.0 157.0 992 0 6 -- Chart
1976 4 15 18 41.0 163.0 994 0 6 -- Chart
1976 4 16 00 42.0 168.0 996 0 6 -- Chart
1976 4 16 06 42.5 173.0 996 0 6 -- Chart
1976 4 16 12 45.0 178.5 996 0 6 -- Chart
1976 4 16 18 47.0 182.0 996 0 6 -- Chart
Japan Meteorological Agency Best Track Data | Correction Date : 1992-10-21
< Typhoon 197602 1976 Season Typhoon 197604 >

Help